sensor_id;sensor_type;location;lat;lon;timestamp;P1;durP1;ratioP1;P2;durP2;ratioP2
20557;SDS011;10437;48.156;11.530;2024-02-16T00:02:15;7.70;;;3.17;;
20557;SDS011;10437;48.156;11.530;2024-02-16T00:04:43;8.07;;;3.37;;
20557;SDS011;10437;48.156;11.530;2024-02-16T00:07:10;6.50;;;3.35;;
20557;SDS011;10437;48.156;11.530;2024-02-16T00:09:37;5.57;;;3.63;;
20557;SDS011;10437;48.156;11.530;2024-02-16T00:12:06;7.37;;;3.50;;
20557;SDS011;10437;48.156;11.530;2024-02-16T00:14:33;7.03;;;3.50;;
20557;SDS011;10437;48.156;11.530;2024-02-16T00:17:01;6.80;;;3.67;;
20557;SDS011;10437;48.156;11.530;2024-02-16T00:19:28;6.93;;;3.70;;
20557;SDS011;10437;48.156;11.530;2024-02-16T00:21:56;10.67;;;4.30;;
20557;SDS011;10437;48.156;11.530;2024-02-16T00:24:23;5.63;;;3.67;;
20557;SDS011;10437;48.156;11.530;2024-02-16T00:26:50;6.30;;;3.33;;
20557;SDS011;10437;48.156;11.530;2024-02-16T00:29:19;10.00;;;4.03;;
20557;SDS011;10437;48.156;11.530;2024-02-16T00:31:46;7.13;;;3.97;;
20557;SDS011;10437;48.156;11.530;2024-02-16T00:34:13;7.63;;;3.43;;
20557;SDS011;10437;48.156;11.530;2024-02-16T00:36:41;6.73;;;3.47;;
20557;SDS011;10437;48.156;11.530;2024-02-16T00:39:09;7.07;;;3.20;;
20557;SDS011;10437;48.156;11.530;2024-02-16T00:41:36;7.60;;;3.40;;
20557;SDS011;10437;48.156;11.530;2024-02-16T00:44:04;7.17;;;3.50;;
20557;SDS011;10437;48.156;11.530;2024-02-16T00:46:32;5.27;;;3.23;;
20557;SDS011;10437;48.156;11.530;2024-02-16T00:49:01;5.70;;;3.28;;
20557;SDS011;10437;48.156;11.530;2024-02-16T00:51:29;7.03;;;3.03;;
20557;SDS011;10437;48.156;11.530;2024-02-16T00:53:56;5.38;;;3.30;;
20557;SDS011;10437;48.156;11.530;2024-02-16T00:56:23;5.15;;;3.20;;
20557;SDS011;10437;48.156;11.530;2024-02-16T00:58:50;6.50;;;3.25;;
20557;SDS011;10437;48.156;11.530;2024-02-16T01:01:17;8.73;;;3.80;;
20557;SDS011;10437;48.156;11.530;2024-02-16T01:03:48;5.47;;;3.20;;
20557;SDS011;10437;48.156;11.530;2024-02-16T01:06:17;6.30;;;3.47;;
20557;SDS011;10437;48.156;11.530;2024-02-16T01:08:44;7.30;;;3.92;;
20557;SDS011;10437;48.156;11.530;2024-02-16T01:11:11;10.10;;;3.50;;
20557;SDS011;10437;48.156;11.530;2024-02-16T01:13:39;9.37;;;4.10;;
20557;SDS011;10437;48.156;11.530;2024-02-16T01:16:06;5.93;;;3.65;;
20557;SDS011;10437;48.156;11.530;2024-02-16T01:18:35;6.90;;;3.80;;
20557;SDS011;10437;48.156;11.530;2024-02-16T01:21:04;8.83;;;3.87;;
20557;SDS011;10437;48.156;11.530;2024-02-16T01:23:31;7.47;;;3.95;;
20557;SDS011;10437;48.156;11.530;2024-02-16T01:25:58;6.93;;;3.83;;
20557;SDS011;10437;48.156;11.530;2024-02-16T01:28:25;7.23;;;3.80;;
20557;SDS011;10437;48.156;11.530;2024-02-16T01:30:53;8.33;;;3.60;;
20557;SDS011;10437;48.156;11.530;2024-02-16T01:33:21;6.68;;;3.75;;
20557;SDS011;10437;48.156;11.530;2024-02-16T01:35:48;6.23;;;3.30;;
20557;SDS011;10437;48.156;11.530;2024-02-16T01:38:17;10.13;;;3.93;;
20557;SDS011;10437;48.156;11.530;2024-02-16T01:40:46;8.70;;;3.57;;
20557;SDS011;10437;48.156;11.530;2024-02-16T01:43:13;10.17;;;3.43;;
20557;SDS011;10437;48.156;11.530;2024-02-16T01:45:45;7.10;;;3.17;;
20557;SDS011;10437;48.156;11.530;2024-02-16T01:48:12;6.63;;;3.40;;
20557;SDS011;10437;48.156;11.530;2024-02-16T01:50:40;7.20;;;3.80;;
20557;SDS011;10437;48.156;11.530;2024-02-16T01:53:09;5.43;;;3.17;;
20557;SDS011;10437;48.156;11.530;2024-02-16T01:55:38;6.43;;;3.77;;
20557;SDS011;10437;48.156;11.530;2024-02-16T01:58:06;5.90;;;3.43;;
20557;SDS011;10437;48.156;11.530;2024-02-16T02:00:33;9.50;;;4.10;;
20557;SDS011;10437;48.156;11.530;2024-02-16T02:03:00;5.82;;;3.25;;
20557;SDS011;10437;48.156;11.530;2024-02-16T02:05:28;7.90;;;3.47;;
20557;SDS011;10437;48.156;11.530;2024-02-16T02:07:55;6.83;;;3.87;;
20557;SDS011;10437;48.156;11.530;2024-02-16T02:10:22;5.80;;;3.50;;
20557;SDS011;10437;48.156;11.530;2024-02-16T02:12:51;6.28;;;3.70;;
20557;SDS011;10437;48.156;11.530;2024-02-16T02:15:18;7.37;;;3.60;;
20557;SDS011;10437;48.156;11.530;2024-02-16T02:17:45;5.30;;;3.03;;
20557;SDS011;10437;48.156;11.530;2024-02-16T02:20:12;5.57;;;3.30;;
20557;SDS011;10437;48.156;11.530;2024-02-16T02:22:41;8.20;;;3.37;;
20557;SDS011;10437;48.156;11.530;2024-02-16T02:25:08;6.20;;;3.27;;
20557;SDS011;10437;48.156;11.530;2024-02-16T02:27:36;4.83;;;3.20;;
20557;SDS011;10437;48.156;11.530;2024-02-16T02:30:03;6.57;;;3.00;;
20557;SDS011;10437;48.156;11.530;2024-02-16T02:32:31;7.37;;;3.30;;
20557;SDS011;10437;48.156;11.530;2024-02-16T02:34:59;5.40;;;3.13;;
20557;SDS011;10437;48.156;11.530;2024-02-16T02:37:26;6.90;;;3.53;;
20557;SDS011;10437;48.156;11.530;2024-02-16T02:39:54;7.53;;;3.27;;
20557;SDS011;10437;48.156;11.530;2024-02-16T02:42:22;6.20;;;2.97;;
20557;SDS011;10437;48.156;11.530;2024-02-16T02:44:49;5.73;;;3.00;;
20557;SDS011;10437;48.156;11.530;2024-02-16T02:47:16;8.33;;;3.50;;
20557;SDS011;10437;48.156;11.530;2024-02-16T02:49:43;7.07;;;3.03;;
20557;SDS011;10437;48.156;11.530;2024-02-16T02:52:10;5.23;;;3.27;;
20557;SDS011;10437;48.156;11.530;2024-02-16T02:54:38;6.17;;;2.80;;
20557;SDS011;10437;48.156;11.530;2024-02-16T02:57:06;9.33;;;3.13;;
20557;SDS011;10437;48.156;11.530;2024-02-16T02:59:34;6.53;;;3.23;;
20557;SDS011;10437;48.156;11.530;2024-02-16T03:02:01;6.95;;;3.13;;
20557;SDS011;10437;48.156;11.530;2024-02-16T03:04:28;6.80;;;3.30;;
20557;SDS011;10437;48.156;11.530;2024-02-16T03:06:55;6.80;;;3.20;;
20557;SDS011;10437;48.156;11.530;2024-02-16T03:09:22;8.37;;;3.60;;
20557;SDS011;10437;48.156;11.530;2024-02-16T03:11:50;5.10;;;3.10;;
20557;SDS011;10437;48.156;11.530;2024-02-16T03:14:19;6.93;;;3.60;;
20557;SDS011;10437;48.156;11.530;2024-02-16T03:16:46;6.50;;;3.43;;
20557;SDS011;10437;48.156;11.530;2024-02-16T03:19:13;7.22;;;3.63;;
20557;SDS011;10437;48.156;11.530;2024-02-16T03:21:40;6.27;;;3.27;;
20557;SDS011;10437;48.156;11.530;2024-02-16T03:24:09;5.63;;;3.57;;
20557;SDS011;10437;48.156;11.530;2024-02-16T03:26:36;5.43;;;3.07;;
20557;SDS011;10437;48.156;11.530;2024-02-16T03:29:02;5.43;;;2.80;;
20557;SDS011;10437;48.156;11.530;2024-02-16T03:31:31;5.73;;;2.77;;
20557;SDS011;10437;48.156;11.530;2024-02-16T03:33:58;8.00;;;3.50;;
20557;SDS011;10437;48.156;11.530;2024-02-16T03:36:26;4.70;;;2.70;;
20557;SDS011;10437;48.156;11.530;2024-02-16T03:38:54;6.17;;;3.07;;
20557;SDS011;10437;48.156;11.530;2024-02-16T03:41:21;5.60;;;3.07;;
20557;SDS011;10437;48.156;11.530;2024-02-16T03:43:49;7.87;;;3.07;;
20557;SDS011;10437;48.156;11.530;2024-02-16T03:46:16;5.67;;;3.43;;
20557;SDS011;10437;48.156;11.530;2024-02-16T03:48:45;5.80;;;3.10;;
20557;SDS011;10437;48.156;11.530;2024-02-16T03:51:12;11.47;;;3.57;;
20557;SDS011;10437;48.156;11.530;2024-02-16T03:53:39;6.93;;;3.30;;
20557;SDS011;10437;48.156;11.530;2024-02-16T03:56:06;6.23;;;3.00;;
20557;SDS011;10437;48.156;11.530;2024-02-16T03:58:34;5.67;;;3.17;;
20557;SDS011;10437;48.156;11.530;2024-02-16T04:01:01;6.57;;;3.03;;
20557;SDS011;10437;48.156;11.530;2024-02-16T04:03:28;7.87;;;3.20;;
20557;SDS011;10437;48.156;11.530;2024-02-16T04:05:57;10.60;;;3.47;;
20557;SDS011;10437;48.156;11.530;2024-02-16T04:08:24;6.33;;;3.03;;
20557;SDS011;10437;48.156;11.530;2024-02-16T04:10:51;8.47;;;3.30;;
20557;SDS011;10437;48.156;11.530;2024-02-16T04:13:19;5.93;;;3.03;;
20557;SDS011;10437;48.156;11.530;2024-02-16T04:15:46;9.57;;;3.10;;
20557;SDS011;10437;48.156;11.530;2024-02-16T04:18:13;6.53;;;3.17;;
20557;SDS011;10437;48.156;11.530;2024-02-16T04:20:40;8.27;;;3.20;;
20557;SDS011;10437;48.156;11.530;2024-02-16T04:23:09;6.93;;;3.10;;
20557;SDS011;10437;48.156;11.530;2024-02-16T04:25:36;5.00;;;2.60;;
20557;SDS011;10437;48.156;11.530;2024-02-16T04:28:04;6.83;;;2.57;;
20557;SDS011;10437;48.156;11.530;2024-02-16T04:30:31;5.20;;;2.70;;
20557;SDS011;10437;48.156;11.530;2024-02-16T04:32:58;5.20;;;2.53;;
20557;SDS011;10437;48.156;11.530;2024-02-16T04:35:26;8.77;;;3.13;;
20557;SDS011;10437;48.156;11.530;2024-02-16T04:37:53;5.43;;;2.60;;
20557;SDS011;10437;48.156;11.530;2024-02-16T04:40:22;9.37;;;3.30;;
20557;SDS011;10437;48.156;11.530;2024-02-16T04:42:49;6.60;;;2.83;;
20557;SDS011;10437;48.156;11.530;2024-02-16T04:45:16;7.37;;;2.63;;
20557;SDS011;10437;48.156;11.530;2024-02-16T04:47:44;6.90;;;2.80;;
20557;SDS011;10437;48.156;11.530;2024-02-16T04:50:11;6.70;;;2.97;;
20557;SDS011;10437;48.156;11.530;2024-02-16T04:52:39;5.30;;;2.83;;
20557;SDS011;10437;48.156;11.530;2024-02-16T04:55:06;4.67;;;2.47;;
20557;SDS011;10437;48.156;11.530;2024-02-16T04:57:35;6.07;;;2.80;;
20557;SDS011;10437;48.156;11.530;2024-02-16T05:00:02;7.07;;;3.23;;
20557;SDS011;10437;48.156;11.530;2024-02-16T05:02:30;6.40;;;2.57;;
20557;SDS011;10437;48.156;11.530;2024-02-16T05:04:57;5.43;;;2.40;;
20557;SDS011;10437;48.156;11.530;2024-02-16T05:07:24;5.30;;;2.67;;
20557;SDS011;10437;48.156;11.530;2024-02-16T05:09:52;5.07;;;2.30;;
20557;SDS011;10437;48.156;11.530;2024-02-16T05:12:23;8.07;;;2.77;;
20557;SDS011;10437;48.156;11.530;2024-02-16T05:14:51;9.27;;;2.40;;
20557;SDS011;10437;48.156;11.530;2024-02-16T05:17:18;7.10;;;2.87;;
20557;SDS011;10437;48.156;11.530;2024-02-16T05:19:47;4.27;;;2.20;;
20557;SDS011;10437;48.156;11.530;2024-02-16T05:22:15;4.83;;;2.60;;
20557;SDS011;10437;48.156;11.530;2024-02-16T05:24:43;10.60;;;3.57;;
20557;SDS011;10437;48.156;11.530;2024-02-16T05:27:11;8.40;;;2.67;;
20557;SDS011;10437;48.156;11.530;2024-02-16T05:29:38;3.90;;;2.40;;
20557;SDS011;10437;48.156;11.530;2024-02-16T05:32:07;7.93;;;1.80;;
20557;SDS011;10437;48.156;11.530;2024-02-16T05:34:35;3.90;;;2.27;;
20557;SDS011;10437;48.156;11.530;2024-02-16T05:37:03;4.57;;;2.60;;
20557;SDS011;10437;48.156;11.530;2024-02-16T05:39:32;4.30;;;1.93;;
20557;SDS011;10437;48.156;11.530;2024-02-16T05:42:01;6.17;;;2.50;;
20557;SDS011;10437;48.156;11.530;2024-02-16T05:44:28;5.57;;;2.43;;
20557;SDS011;10437;48.156;11.530;2024-02-16T05:46:57;4.50;;;2.40;;
20557;SDS011;10437;48.156;11.530;2024-02-16T05:49:26;5.80;;;2.70;;
20557;SDS011;10437;48.156;11.530;2024-02-16T05:51:53;5.90;;;2.70;;
20557;SDS011;10437;48.156;11.530;2024-02-16T05:54:40;8.03;;;2.40;;
20557;SDS011;10437;48.156;11.530;2024-02-16T05:57:07;5.03;;;2.20;;
20557;SDS011;10437;48.156;11.530;2024-02-16T05:59:35;6.13;;;2.70;;
20557;SDS011;10437;48.156;11.530;2024-02-16T06:02:03;6.27;;;2.10;;
20557;SDS011;10437;48.156;11.530;2024-02-16T06:04:31;4.15;;;2.33;;
20557;SDS011;10437;48.156;11.530;2024-02-16T06:06:58;6.77;;;2.67;;
20557;SDS011;10437;48.156;11.530;2024-02-16T06:09:26;10.43;;;2.77;;
20557;SDS011;10437;48.156;11.530;2024-02-16T06:11:59;5.00;;;2.60;;
20557;SDS011;10437;48.156;11.530;2024-02-16T06:14:28;6.67;;;2.53;;
20557;SDS011;10437;48.156;11.530;2024-02-16T06:16:55;6.17;;;2.30;;
20557;SDS011;10437;48.156;11.530;2024-02-16T06:19:22;8.97;;;2.03;;
20557;SDS011;10437;48.156;11.530;2024-02-16T06:21:52;7.67;;;2.43;;
20557;SDS011;10437;48.156;11.530;2024-02-16T06:24:19;6.23;;;2.27;;
20557;SDS011;10437;48.156;11.530;2024-02-16T06:26:47;8.37;;;2.60;;
20557;SDS011;10437;48.156;11.530;2024-02-16T06:29:14;11.03;;;2.63;;
20557;SDS011;10437;48.156;11.530;2024-02-16T06:31:41;8.03;;;2.40;;
20557;SDS011;10437;48.156;11.530;2024-02-16T06:34:09;5.77;;;1.90;;
20557;SDS011;10437;48.156;11.530;2024-02-16T06:36:36;4.60;;;1.83;;
20557;SDS011;10437;48.156;11.530;2024-02-16T06:39:04;6.20;;;2.30;;
20557;SDS011;10437;48.156;11.530;2024-02-16T06:41:32;5.33;;;2.10;;
20557;SDS011;10437;48.156;11.530;2024-02-16T06:43:59;10.40;;;2.17;;
20557;SDS011;10437;48.156;11.530;2024-02-16T06:46:26;5.30;;;2.00;;
20557;SDS011;10437;48.156;11.530;2024-02-16T06:48:54;5.17;;;2.20;;
20557;SDS011;10437;48.156;11.530;2024-02-16T06:51:22;4.17;;;2.27;;
20557;SDS011;10437;48.156;11.530;2024-02-16T06:53:51;6.85;;;2.20;;
20557;SDS011;10437;48.156;11.530;2024-02-16T06:56:20;6.00;;;2.25;;
20557;SDS011;10437;48.156;11.530;2024-02-16T06:58:47;3.97;;;1.80;;
20557;SDS011;10437;48.156;11.530;2024-02-16T07:01:14;5.32;;;2.13;;
20557;SDS011;10437;48.156;11.530;2024-02-16T07:03:43;6.57;;;2.15;;
20557;SDS011;10437;48.156;11.530;2024-02-16T07:06:10;6.17;;;1.90;;
20557;SDS011;10437;48.156;11.530;2024-02-16T07:08:38;5.37;;;1.87;;
20557;SDS011;10437;48.156;11.530;2024-02-16T07:11:06;8.63;;;2.00;;
20557;SDS011;10437;48.156;11.530;2024-02-16T07:13:34;5.38;;;2.00;;
20557;SDS011;10437;48.156;11.530;2024-02-16T07:16:02;7.33;;;2.40;;
20557;SDS011;10437;48.156;11.530;2024-02-16T07:18:31;8.38;;;1.70;;
20557;SDS011;10437;48.156;11.530;2024-02-16T07:20:59;9.00;;;2.10;;
20557;SDS011;10437;48.156;11.530;2024-02-16T07:23:26;5.97;;;1.95;;
20557;SDS011;10437;48.156;11.530;2024-02-16T07:25:53;5.63;;;2.22;;
20557;SDS011;10437;48.156;11.530;2024-02-16T07:28:21;10.30;;;1.95;;
20557;SDS011;10437;48.156;11.530;2024-02-16T07:30:50;5.90;;;1.70;;
20557;SDS011;10437;48.156;11.530;2024-02-16T07:33:18;10.20;;;2.22;;
20557;SDS011;10437;48.156;11.530;2024-02-16T07:35:45;7.55;;;1.83;;
20557;SDS011;10437;48.156;11.530;2024-02-16T07:38:12;5.43;;;1.67;;
20557;SDS011;10437;48.156;11.530;2024-02-16T07:40:40;6.35;;;2.47;;
20557;SDS011;10437;48.156;11.530;2024-02-16T07:43:07;4.35;;;2.00;;
20557;SDS011;10437;48.156;11.530;2024-02-16T07:45:35;4.75;;;1.85;;
20557;SDS011;10437;48.156;11.530;2024-02-16T07:48:04;4.13;;;2.10;;
20557;SDS011;10437;48.156;11.530;2024-02-16T07:50:32;11.15;;;2.10;;
20557;SDS011;10437;48.156;11.530;2024-02-16T07:53:00;8.77;;;2.88;;
20557;SDS011;10437;48.156;11.530;2024-02-16T07:55:27;10.90;;;2.40;;
20557;SDS011;10437;48.156;11.530;2024-02-16T07:57:54;8.63;;;2.10;;
20557;SDS011;10437;48.156;11.530;2024-02-16T08:00:21;10.18;;;2.40;;
20557;SDS011;10437;48.156;11.530;2024-02-16T08:02:49;5.45;;;2.03;;
20557;SDS011;10437;48.156;11.530;2024-02-16T08:05:17;6.80;;;2.40;;
20557;SDS011;10437;48.156;11.530;2024-02-16T08:07:45;6.95;;;2.03;;
20557;SDS011;10437;48.156;11.530;2024-02-16T08:10:13;7.25;;;2.10;;
20557;SDS011;10437;48.156;11.530;2024-02-16T08:12:41;10.27;;;2.47;;
20557;SDS011;10437;48.156;11.530;2024-02-16T08:15:08;10.30;;;2.25;;
20557;SDS011;10437;48.156;11.530;2024-02-16T08:17:36;6.18;;;2.17;;
20557;SDS011;10437;48.156;11.530;2024-02-16T08:20:03;7.15;;;2.35;;
20557;SDS011;10437;48.156;11.530;2024-02-16T08:22:32;5.95;;;2.15;;
20557;SDS011;10437;48.156;11.530;2024-02-16T08:25:01;10.35;;;2.67;;
20557;SDS011;10437;48.156;11.530;2024-02-16T08:27:28;7.72;;;2.50;;
20557;SDS011;10437;48.156;11.530;2024-02-16T08:29:57;8.30;;;2.38;;
20557;SDS011;10437;48.156;11.530;2024-02-16T08:32:25;4.93;;;2.15;;
20557;SDS011;10437;48.156;11.530;2024-02-16T08:34:52;11.63;;;2.28;;
20557;SDS011;10437;48.156;11.530;2024-02-16T08:37:21;5.07;;;2.15;;
20557;SDS011;10437;48.156;11.530;2024-02-16T08:39:49;12.05;;;2.70;;
20557;SDS011;10437;48.156;11.530;2024-02-16T08:42:17;6.22;;;2.25;;
20557;SDS011;10437;48.156;11.530;2024-02-16T08:44:44;10.07;;;2.33;;
20557;SDS011;10437;48.156;11.530;2024-02-16T08:47:11;6.60;;;2.40;;
20557;SDS011;10437;48.156;11.530;2024-02-16T08:49:39;8.10;;;2.10;;
20557;SDS011;10437;48.156;11.530;2024-02-16T08:52:07;6.55;;;1.88;;
20557;SDS011;10437;48.156;11.530;2024-02-16T08:54:34;5.70;;;1.70;;
20557;SDS011;10437;48.156;11.530;2024-02-16T08:57:03;5.25;;;1.80;;
20557;SDS011;10437;48.156;11.530;2024-02-16T08:59:31;5.15;;;2.10;;
20557;SDS011;10437;48.156;11.530;2024-02-16T09:01:59;6.50;;;1.67;;
20557;SDS011;10437;48.156;11.530;2024-02-16T09:04:26;4.43;;;1.90;;
20557;SDS011;10437;48.156;11.530;2024-02-16T09:06:54;6.07;;;1.73;;
20557;SDS011;10437;48.156;11.530;2024-02-16T09:09:21;6.32;;;1.90;;
20557;SDS011;10437;48.156;11.530;2024-02-16T09:11:49;6.32;;;1.50;;
20557;SDS011;10437;48.156;11.530;2024-02-16T09:14:17;3.25;;;1.50;;
20557;SDS011;10437;48.156;11.530;2024-02-16T09:16:44;9.98;;;1.65;;
20557;SDS011;10437;48.156;11.530;2024-02-16T09:19:11;4.57;;;1.58;;
20557;SDS011;10437;48.156;11.530;2024-02-16T09:21:39;5.70;;;1.55;;
20557;SDS011;10437;48.156;11.530;2024-02-16T09:24:06;5.75;;;1.60;;
20557;SDS011;10437;48.156;11.530;2024-02-16T09:26:35;5.70;;;1.80;;
20557;SDS011;10437;48.156;11.530;2024-02-16T09:29:03;9.88;;;1.52;;
20557;SDS011;10437;48.156;11.530;2024-02-16T09:31:32;24.67;;;2.40;;
20557;SDS011;10437;48.156;11.530;2024-02-16T09:33:59;9.45;;;1.60;;
20557;SDS011;10437;48.156;11.530;2024-02-16T09:36:27;7.45;;;1.45;;
20557;SDS011;10437;48.156;11.530;2024-02-16T09:38:55;9.80;;;2.20;;
20557;SDS011;10437;48.156;11.530;2024-02-16T09:41:22;4.43;;;1.25;;
20557;SDS011;10437;48.156;11.530;2024-02-16T09:43:49;6.55;;;1.50;;
20557;SDS011;10437;48.156;11.530;2024-02-16T09:46:19;3.55;;;1.55;;
20557;SDS011;10437;48.156;11.530;2024-02-16T09:48:47;6.30;;;1.20;;
20557;SDS011;10437;48.156;11.530;2024-02-16T09:51:17;41.42;;;3.38;;
20557;SDS011;10437;48.156;11.530;2024-02-16T09:53:45;8.80;;;1.45;;
20557;SDS011;10437;48.156;11.530;2024-02-16T09:56:17;4.72;;;1.10;;
20557;SDS011;10437;48.156;11.530;2024-02-16T09:58:45;15.93;;;1.92;;
20557;SDS011;10437;48.156;11.530;2024-02-16T10:01:17;11.35;;;2.20;;
20557;SDS011;10437;48.156;11.530;2024-02-16T10:03:45;6.88;;;2.33;;
20557;SDS011;10437;48.156;11.530;2024-02-16T10:06:14;8.45;;;2.58;;
20557;SDS011;10437;48.156;11.530;2024-02-16T10:08:48;7.70;;;2.40;;
20557;SDS011;10437;48.156;11.530;2024-02-16T10:11:17;11.10;;;2.10;;
20557;SDS011;10437;48.156;11.530;2024-02-16T10:13:54;4.40;;;2.03;;
20557;SDS011;10437;48.156;11.530;2024-02-16T10:16:22;7.68;;;2.25;;
20557;SDS011;10437;48.156;11.530;2024-02-16T10:18:49;7.00;;;2.20;;
20557;SDS011;10437;48.156;11.530;2024-02-16T10:21:27;5.68;;;2.00;;
20557;SDS011;10437;48.156;11.530;2024-02-16T10:23:56;7.72;;;2.05;;
20557;SDS011;10437;48.156;11.530;2024-02-16T10:26:23;3.78;;;1.98;;
20557;SDS011;10437;48.156;11.530;2024-02-16T10:28:51;9.57;;;2.40;;
20557;SDS011;10437;48.156;11.530;2024-02-16T10:31:22;6.10;;;2.03;;
20557;SDS011;10437;48.156;11.530;2024-02-16T10:33:54;4.90;;;1.80;;
20557;SDS011;10437;48.156;11.530;2024-02-16T10:36:21;5.07;;;1.88;;
20557;SDS011;10437;48.156;11.530;2024-02-16T10:38:50;6.45;;;1.50;;
20557;SDS011;10437;48.156;11.530;2024-02-16T10:41:18;3.65;;;1.15;;
20557;SDS011;10437;48.156;11.530;2024-02-16T10:43:47;3.97;;;1.58;;
20557;SDS011;10437;48.156;11.530;2024-02-16T10:46:15;5.55;;;1.20;;
20557;SDS011;10437;48.156;11.530;2024-02-16T10:48:42;4.38;;;1.50;;
20557;SDS011;10437;48.156;11.530;2024-02-16T10:51:10;2.53;;;1.20;;
20557;SDS011;10437;48.156;11.530;2024-02-16T10:53:39;2.30;;;1.30;;
20557;SDS011;10437;48.156;11.530;2024-02-16T10:56:08;2.63;;;1.23;;
20557;SDS011;10437;48.156;11.530;2024-02-16T10:58:36;6.72;;;1.70;;
20557;SDS011;10437;48.156;11.530;2024-02-16T11:01:07;2.58;;;1.10;;
20557;SDS011;10437;48.156;11.530;2024-02-16T11:03:37;6.38;;;1.00;;
20557;SDS011;10437;48.156;11.530;2024-02-16T11:06:11;2.25;;;1.23;;
20557;SDS011;10437;48.156;11.530;2024-02-16T11:08:42;4.18;;;1.13;;
20557;SDS011;10437;48.156;11.530;2024-02-16T11:11:10;9.32;;;1.67;;
20557;SDS011;10437;48.156;11.530;2024-02-16T11:13:38;3.08;;;1.20;;
20557;SDS011;10437;48.156;11.530;2024-02-16T11:16:06;10.43;;;1.98;;
20557;SDS011;10437;48.156;11.530;2024-02-16T11:18:37;17.85;;;1.70;;
20557;SDS011;10437;48.156;11.530;2024-02-16T11:21:04;5.88;;;1.30;;
20557;SDS011;10437;48.156;11.530;2024-02-16T11:23:33;9.25;;;1.73;;
20557;SDS011;10437;48.156;11.530;2024-02-16T11:26:01;13.27;;;1.38;;
20557;SDS011;10437;48.156;11.530;2024-02-16T11:28:32;67.07;;;3.20;;
20557;SDS011;10437;48.156;11.530;2024-02-16T11:30:59;5.28;;;1.30;;
20557;SDS011;10437;48.156;11.530;2024-02-16T11:33:27;6.68;;;1.70;;
20557;SDS011;10437;48.156;11.530;2024-02-16T11:35:56;9.35;;;1.83;;
20557;SDS011;10437;48.156;11.530;2024-02-16T11:38:24;25.15;;;2.53;;
20557;SDS011;10437;48.156;11.530;2024-02-16T11:40:55;20.02;;;2.35;;
20557;SDS011;10437;48.156;11.530;2024-02-16T11:43:22;9.18;;;1.40;;
20557;SDS011;10437;48.156;11.530;2024-02-16T11:45:51;5.03;;;1.35;;
20557;SDS011;10437;48.156;11.530;2024-02-16T11:48:19;2.45;;;1.27;;
20557;SDS011;10437;48.156;11.530;2024-02-16T11:50:47;3.10;;;1.33;;
20557;SDS011;10437;48.156;11.530;2024-02-16T11:53:17;1.52;;;1.25;;
20557;SDS011;10437;48.156;11.530;2024-02-16T11:55:48;3.05;;;1.17;;
20557;SDS011;10437;48.156;11.530;2024-02-16T11:58:16;2.95;;;1.20;;
20557;SDS011;10437;48.156;11.530;2024-02-16T12:00:44;4.32;;;1.38;;
20557;SDS011;10437;48.156;11.530;2024-02-16T12:03:18;5.15;;;1.60;;
20557;SDS011;10437;48.156;11.530;2024-02-16T12:05:50;3.88;;;1.08;;
20557;SDS011;10437;48.156;11.530;2024-02-16T12:08:18;3.13;;;1.50;;
20557;SDS011;10437;48.156;11.530;2024-02-16T12:10:46;2.35;;;1.00;;
20557;SDS011;10437;48.156;11.530;2024-02-16T12:13:15;12.75;;;1.40;;
20557;SDS011;10437;48.156;11.530;2024-02-16T12:15:43;4.30;;;1.25;;
20557;SDS011;10437;48.156;11.530;2024-02-16T12:18:20;2.53;;;1.10;;
20557;SDS011;10437;48.156;11.530;2024-02-16T12:20:56;2.60;;;1.25;;
20557;SDS011;10437;48.156;11.530;2024-02-16T12:23:24;2.92;;;1.00;;
20557;SDS011;10437;48.156;11.530;2024-02-16T12:25:51;3.50;;;1.20;;
20557;SDS011;10437;48.156;11.530;2024-02-16T12:28:19;2.38;;;1.10;;
20557;SDS011;10437;48.156;11.530;2024-02-16T12:30:47;4.80;;;1.00;;
20557;SDS011;10437;48.156;11.530;2024-02-16T12:33:14;1.63;;;1.05;;
20557;SDS011;10437;48.156;11.530;2024-02-16T12:35:43;2.25;;;1.10;;
20557;SDS011;10437;48.156;11.530;2024-02-16T12:38:10;2.92;;;1.13;;
20557;SDS011;10437;48.156;11.530;2024-02-16T12:40:37;3.05;;;1.10;;
20557;SDS011;10437;48.156;11.530;2024-02-16T12:43:05;3.97;;;1.05;;
20557;SDS011;10437;48.156;11.530;2024-02-16T12:45:34;1.98;;;0.93;;
20557;SDS011;10437;48.156;11.530;2024-02-16T12:48:01;3.72;;;1.20;;
20557;SDS011;10437;48.156;11.530;2024-02-16T12:50:29;4.07;;;1.02;;
20557;SDS011;10437;48.156;11.530;2024-02-16T12:52:57;3.55;;;1.42;;
20557;SDS011;10437;48.156;11.530;2024-02-16T12:55:24;5.53;;;1.20;;
20557;SDS011;10437;48.156;11.530;2024-02-16T12:57:52;4.97;;;1.30;;
20557;SDS011;10437;48.156;11.530;2024-02-16T13:00:19;5.97;;;1.30;;
20557;SDS011;10437;48.156;11.530;2024-02-16T13:02:46;8.50;;;1.15;;
20557;SDS011;10437;48.156;11.530;2024-02-16T13:05:13;2.67;;;0.90;;
20557;SDS011;10437;48.156;11.530;2024-02-16T13:07:41;4.20;;;1.30;;
20557;SDS011;10437;48.156;11.530;2024-02-16T13:10:09;3.85;;;1.20;;
20557;SDS011;10437;48.156;11.530;2024-02-16T13:12:37;3.17;;;1.30;;
20557;SDS011;10437;48.156;11.530;2024-02-16T13:15:04;1.77;;;1.13;;
20557;SDS011;10437;48.156;11.530;2024-02-16T13:17:31;6.20;;;1.45;;
20557;SDS011;10437;48.156;11.530;2024-02-16T13:19:59;4.00;;;1.50;;
20557;SDS011;10437;48.156;11.530;2024-02-16T13:22:32;6.00;;;1.40;;
20557;SDS011;10437;48.156;11.530;2024-02-16T13:24:59;4.75;;;1.52;;
20557;SDS011;10437;48.156;11.530;2024-02-16T13:27:27;11.07;;;2.00;;
20557;SDS011;10437;48.156;11.530;2024-02-16T13:29:54;3.13;;;1.20;;
20557;SDS011;10437;48.156;11.530;2024-02-16T13:32:22;2.97;;;1.50;;
20557;SDS011;10437;48.156;11.530;2024-02-16T13:34:50;3.05;;;1.45;;
20557;SDS011;10437;48.156;11.530;2024-02-16T13:37:17;3.42;;;1.48;;
20557;SDS011;10437;48.156;11.530;2024-02-16T13:39:44;2.72;;;1.50;;
20557;SDS011;10437;48.156;11.530;2024-02-16T13:42:11;7.90;;;1.60;;
20557;SDS011;10437;48.156;11.530;2024-02-16T13:44:41;3.10;;;1.42;;
20557;SDS011;10437;48.156;11.530;2024-02-16T13:47:08;5.35;;;1.55;;
20557;SDS011;10437;48.156;11.530;2024-02-16T13:49:35;4.03;;;1.40;;
20557;SDS011;10437;48.156;11.530;2024-02-16T13:52:02;2.28;;;1.27;;
20557;SDS011;10437;48.156;11.530;2024-02-16T13:54:30;5.03;;;1.30;;
20557;SDS011;10437;48.156;11.530;2024-02-16T13:56:57;2.40;;;1.35;;
20557;SDS011;10437;48.156;11.530;2024-02-16T13:59:24;3.78;;;1.40;;
20557;SDS011;10437;48.156;11.530;2024-02-16T14:01:53;6.07;;;1.50;;
20557;SDS011;10437;48.156;11.530;2024-02-16T14:04:21;4.82;;;1.40;;
20557;SDS011;10437;48.156;11.530;2024-02-16T14:06:49;9.90;;;1.42;;
20557;SDS011;10437;48.156;11.530;2024-02-16T14:09:16;4.00;;;1.30;;
20557;SDS011;10437;48.156;11.530;2024-02-16T14:11:44;5.22;;;1.17;;
20557;SDS011;10437;48.156;11.530;2024-02-16T14:14:12;2.38;;;1.00;;
20557;SDS011;10437;48.156;11.530;2024-02-16T14:16:39;3.83;;;1.25;;
20557;SDS011;10437;48.156;11.530;2024-02-16T14:19:07;6.38;;;1.10;;
20557;SDS011;10437;48.156;11.530;2024-02-16T14:21:34;5.85;;;1.40;;
20557;SDS011;10437;48.156;11.530;2024-02-16T14:24:02;1.90;;;1.33;;
20557;SDS011;10437;48.156;11.530;2024-02-16T14:26:29;3.55;;;1.30;;
20557;SDS011;10437;48.156;11.530;2024-02-16T14:28:59;4.40;;;1.58;;
20557;SDS011;10437;48.156;11.530;2024-02-16T14:31:26;3.67;;;1.27;;
20557;SDS011;10437;48.156;11.530;2024-02-16T14:33:53;2.72;;;1.58;;
20557;SDS011;10437;48.156;11.530;2024-02-16T14:36:22;3.10;;;1.30;;
20557;SDS011;10437;48.156;11.530;2024-02-16T14:38:49;6.45;;;1.70;;